Terminal Aerodrome Forecast
Issued by NWS Sioux Falls, SD

Home | Current Version | Previous Version | Graphics & Text | Print | Product List | Glossary Off
Versions: 1 2 3 4 5 6 7 8 9 10 11 12 13 14 15 16

229
FTUS43 KFSD 300530
TAFHON
TAF
KHON 300530Z 3006/0106 31018G25KT P6SM -SN OVC015
      TEMPO 3006/3010 3SM -SN
     FM301100 31017G25KT 4SM -SN OVC012
     FM301800 32017G25KT P6SM VCSH OVC012
     FM010100 31013G19KT P6SM OVC015=

USA.gov is the U.S. government's official web portal to all federal, state and local government web resources and services.